sensor_id;sensor_type;location;lat;lon;timestamp;pressure;altitude;pressure_sealevel;temperature;humidity
80938;BME280;70395;51.382;7.074;2023-05-27T10:26:36;101385.69;;;34.72;22.66
80938;BME280;70395;51.382;7.074;2023-05-27T10:29:13;101381.50;;;34.75;22.93
80938;BME280;70395;51.382;7.074;2023-05-27T10:31:51;101374.44;;;34.93;22.17
80938;BME280;70395;51.382;7.074;2023-05-27T10:34:17;101368.13;;;34.77;20.57
80938;BME280;70395;51.382;7.074;2023-05-27T10:36:45;101371.84;;;34.46;21.71
80938;BME280;70395;51.382;7.074;2023-05-27T10:39:22;101369.34;;;34.45;21.61
80938;BME280;70395;51.382;7.074;2023-05-27T10:41:55;101370.41;;;34.59;21.86
80938;BME280;70395;51.382;7.074;2023-05-27T10:44:40;101345.91;;;34.61;21.63
80938;BME280;70395;51.382;7.074;2023-05-27T11:13:21;101328.19;;;35.43;19.28
80938;BME280;70395;51.382;7.074;2023-05-27T11:18:02;101317.53;;;35.80;19.88
80938;BME280;70395;51.382;7.074;2023-05-27T11:21:02;101322.16;;;35.95;19.16
80938;BME280;70395;51.382;7.074;2023-05-27T11:47:45;101273.53;;;37.09;18.71
80938;BME280;70395;51.382;7.074;2023-05-27T11:51:07;101271.69;;;37.18;19.15
80938;BME280;70395;51.382;7.074;2023-05-27T12:04:45;101262.38;;;37.57;17.50
80938;BME280;70395;51.382;7.074;2023-05-27T12:09:34;101264.22;;;35.82;20.80
80938;BME280;70395;51.382;7.074;2023-05-27T12:12:00;101254.84;;;34.67;22.41
80938;BME280;70395;51.382;7.074;2023-05-27T12:14:27;101259.63;;;33.69;23.01
80938;BME280;70395;51.382;7.074;2023-05-27T12:16:52;101249.31;;;32.86;23.98
80938;BME280;70395;51.382;7.074;2023-05-27T12:19:18;101245.16;;;32.13;24.82
80938;BME280;70395;51.382;7.074;2023-05-27T12:21:44;101238.69;;;31.54;25.19
80938;BME280;70395;51.382;7.074;2023-05-27T12:24:10;101232.97;;;31.00;25.72
80938;BME280;70395;51.382;7.074;2023-05-27T12:26:36;101230.53;;;30.53;26.45
80938;BME280;70395;51.382;7.074;2023-05-27T12:29:02;101218.13;;;30.11;27.40
80938;BME280;70395;51.382;7.074;2023-05-27T12:31:28;101228.66;;;29.74;27.66
80938;BME280;70395;51.382;7.074;2023-05-27T12:33:54;101224.81;;;29.41;28.08
80938;BME280;70395;51.382;7.074;2023-05-27T12:36:19;101226.56;;;29.13;28.68
80938;BME280;70395;51.382;7.074;2023-05-27T12:38:46;101226.31;;;28.85;28.39
80938;BME280;70395;51.382;7.074;2023-05-27T12:41:12;101216.47;;;28.60;28.81
80938;BME280;70395;51.382;7.074;2023-05-27T12:43:38;101219.88;;;28.38;29.42
80938;BME280;70395;51.382;7.074;2023-05-27T12:46:04;101206.25;;;28.19;29.37
80938;BME280;70395;51.382;7.074;2023-05-27T12:48:31;101212.50;;;28.02;29.61
80938;BME280;70395;51.382;7.074;2023-05-27T12:50:57;101202.81;;;27.87;29.69
80938;BME280;70395;51.382;7.074;2023-05-27T12:53:23;101201.38;;;27.73;30.59
80938;BME280;70395;51.382;7.074;2023-05-27T12:55:49;101206.88;;;27.61;30.29
80938;BME280;70395;51.382;7.074;2023-05-27T12:58:15;101200.31;;;27.50;30.61
80938;BME280;70395;51.382;7.074;2023-05-27T13:00:41;101191.19;;;27.37;30.65
80938;BME280;70395;51.382;7.074;2023-05-27T13:03:07;101188.78;;;27.29;30.83
80938;BME280;70395;51.382;7.074;2023-05-27T13:05:33;101188.53;;;27.18;31.14
80938;BME280;70395;51.382;7.074;2023-05-27T13:08:01;101185.25;;;27.09;31.53
80938;BME280;70395;51.382;7.074;2023-05-27T13:10:29;101183.69;;;27.02;31.22
80938;BME280;70395;51.382;7.074;2023-05-27T13:12:56;101179.38;;;26.94;31.71
80938;BME280;70395;51.382;7.074;2023-05-27T13:15:22;101178.63;;;26.86;32.00
80938;BME280;70395;51.382;7.074;2023-05-27T13:17:51;101170.47;;;26.80;31.37
80938;BME280;70395;51.382;7.074;2023-05-27T13:20:19;101179.66;;;26.73;32.04
80938;BME280;70395;51.382;7.074;2023-05-27T13:22:46;101171.28;;;26.68;31.98
80938;BME280;70395;51.382;7.074;2023-05-27T13:25:14;101168.13;;;26.64;32.16
80938;BME280;70395;51.382;7.074;2023-05-27T13:27:41;101160.59;;;26.60;32.18
80938;BME280;70395;51.382;7.074;2023-05-27T13:30:08;101164.63;;;26.57;32.59
80938;BME280;70395;51.382;7.074;2023-05-27T13:32:34;101164.03;;;26.55;32.67
80938;BME280;70395;51.382;7.074;2023-05-27T13:35:01;101157.09;;;26.52;32.50
80938;BME280;70395;51.382;7.074;2023-05-27T13:37:28;101153.75;;;26.50;32.38
80938;BME280;70395;51.382;7.074;2023-05-27T13:39:54;101159.47;;;26.49;33.04
80938;BME280;70395;51.382;7.074;2023-05-27T13:42:21;101154.44;;;26.46;33.02
80938;BME280;70395;51.382;7.074;2023-05-27T13:44:46;101150.03;;;26.45;32.91
80938;BME280;70395;51.382;7.074;2023-05-27T13:47:12;101143.91;;;26.42;32.83
80938;BME280;70395;51.382;7.074;2023-05-27T13:49:38;101140.53;;;26.40;33.21
80938;BME280;70395;51.382;7.074;2023-05-27T13:52:04;101136.13;;;26.39;33.39
80938;BME280;70395;51.382;7.074;2023-05-27T13:54:30;101129.16;;;26.37;33.62
80938;BME280;70395;51.382;7.074;2023-05-27T13:56:56;101132.13;;;26.35;33.27
80938;BME280;70395;51.382;7.074;2023-05-27T13:59:21;101129.63;;;26.34;33.58
80938;BME280;70395;51.382;7.074;2023-05-27T14:01:47;101133.44;;;26.32;33.35
80938;BME280;70395;51.382;7.074;2023-05-27T14:04:16;101127.34;;;26.30;33.35
80938;BME280;70395;51.382;7.074;2023-05-27T14:06:42;101123.97;;;26.28;33.77
80938;BME280;70395;51.382;7.074;2023-05-27T14:09:07;101120.38;;;26.28;33.78
80938;BME280;70395;51.382;7.074;2023-05-27T14:11:33;101120.03;;;26.24;34.11
80938;BME280;70395;51.382;7.074;2023-05-27T14:13:59;101116.44;;;26.24;33.73
80938;BME280;70395;51.382;7.074;2023-05-27T14:16:25;101117.50;;;26.23;34.06
80938;BME280;70395;51.382;7.074;2023-05-27T14:18:51;101112.25;;;26.21;33.97
80938;BME280;70395;51.382;7.074;2023-05-27T14:21:16;101104.25;;;26.19;33.88
80938;BME280;70395;51.382;7.074;2023-05-27T14:23:44;101097.91;;;26.19;34.42
80938;BME280;70395;51.382;7.074;2023-05-27T14:26:10;101092.66;;;26.17;34.36
80938;BME280;70395;51.382;7.074;2023-05-27T14:28:36;101089.06;;;26.17;33.99
80938;BME280;70395;51.382;7.074;2023-05-27T14:31:02;101086.31;;;26.17;34.53
80938;BME280;70395;51.382;7.074;2023-05-27T14:33:27;101081.03;;;26.15;34.22
80938;BME280;70395;51.382;7.074;2023-05-27T14:35:53;101070.03;;;26.15;34.64
80938;BME280;70395;51.382;7.074;2023-05-27T14:38:19;101065.38;;;26.16;34.49
80938;BME280;70395;51.382;7.074;2023-05-27T14:40:46;101070.88;;;26.16;34.42
80938;BME280;70395;51.382;7.074;2023-05-27T14:43:13;101069.81;;;26.17;34.30
80938;BME280;70395;51.382;7.074;2023-05-27T14:45:41;101074.47;;;26.16;34.96
80938;BME280;70395;51.382;7.074;2023-05-27T14:48:07;101065.78;;;26.19;34.89
80938;BME280;70395;51.382;7.074;2023-05-27T14:50:33;101068.28;;;26.21;34.56
80938;BME280;70395;51.382;7.074;2023-05-27T14:53:00;101063.63;;;26.22;34.54
80938;BME280;70395;51.382;7.074;2023-05-27T14:55:26;101059.56;;;26.24;34.71
80938;BME280;70395;51.382;7.074;2023-05-27T14:57:52;101057.66;;;26.25;34.95
80938;BME280;70395;51.382;7.074;2023-05-27T15:00:18;101070.31;;;26.26;34.60
80938;BME280;70395;51.382;7.074;2023-05-27T15:02:44;101065.66;;;26.26;35.14
80938;BME280;70395;51.382;7.074;2023-05-27T15:05:10;101071.16;;;26.26;34.81
80938;BME280;70395;51.382;7.074;2023-05-27T15:07:37;101062.06;;;26.26;34.84
80938;BME280;70395;51.382;7.074;2023-05-27T15:10:05;101065.66;;;26.26;34.98
80938;BME280;70395;51.382;7.074;2023-05-27T15:12:45;101058.72;;;26.24;34.89
80938;BME280;70395;51.382;7.074;2023-05-27T15:15:14;101054.66;;;26.26;35.34
80938;BME280;70395;51.382;7.074;2023-05-27T15:17:42;101063.75;;;26.27;35.33
80938;BME280;70395;51.382;7.074;2023-05-27T15:20:15;101057.19;;;26.28;35.04
80938;BME280;70395;51.382;7.074;2023-05-27T15:22:42;101064.38;;;26.29;35.57
80938;BME280;70395;51.382;7.074;2023-05-27T15:25:08;101058.88;;;26.29;35.33
80938;BME280;70395;51.382;7.074;2023-05-27T15:27:34;101053.13;;;26.30;35.42
80938;BME280;70395;51.382;7.074;2023-05-27T15:30:05;101050.63;;;26.29;35.34
80938;BME280;70395;51.382;7.074;2023-05-27T15:32:31;101048.72;;;26.29;35.20
80938;BME280;70395;51.382;7.074;2023-05-27T15:34:57;101047.63;;;26.30;35.23
80938;BME280;70395;51.382;7.074;2023-05-27T15:37:23;101042.13;;;26.30;35.54
80938;BME280;70395;51.382;7.074;2023-05-27T15:39:50;101037.47;;;26.31;35.56
80938;BME280;70395;51.382;7.074;2023-05-27T15:42:17;101041.91;;;26.32;35.59
80938;BME280;70395;51.382;7.074;2023-05-27T15:44:42;101034.47;;;26.32;35.66
80938;BME280;70395;51.382;7.074;2023-05-27T15:47:08;101029.84;;;26.33;35.43
80938;BME280;70395;51.382;7.074;2023-05-27T15:49:35;101027.09;;;26.33;35.80
80938;BME280;70395;51.382;7.074;2023-05-27T15:52:01;101026.03;;;26.34;35.63
80938;BME280;70395;51.382;7.074;2023-05-27T15:54:27;101029.63;;;26.35;35.77
80938;BME280;70395;51.382;7.074;2023-05-27T15:56:54;101024.34;;;26.33;36.01
80938;BME280;70395;51.382;7.074;2023-05-27T15:59:20;101023.50;;;26.32;35.92
80938;BME280;70395;51.382;7.074;2023-05-27T16:01:46;101024.59;;;26.31;35.84
80938;BME280;70395;51.382;7.074;2023-05-27T16:04:11;101016.34;;;26.31;35.52
80938;BME280;70395;51.382;7.074;2023-05-27T16:06:38;101010.00;;;26.31;35.68
80938;BME280;70395;51.382;7.074;2023-05-27T16:09:04;101003.66;;;26.30;36.27
80938;BME280;70395;51.382;7.074;2023-05-27T16:11:31;101003.66;;;26.30;36.07
80938;BME280;70395;51.382;7.074;2023-05-27T16:13:57;101002.84;;;26.30;35.89
80938;BME280;70395;51.382;7.074;2023-05-27T16:16:23;101000.09;;;26.30;35.92
80938;BME280;70395;51.382;7.074;2023-05-27T16:18:48;101004.75;;;26.29;35.98
80938;BME280;70395;51.382;7.074;2023-05-27T16:21:14;100998.41;;;26.29;36.41
80938;BME280;70395;51.382;7.074;2023-05-27T16:23:40;100993.16;;;26.27;36.14
80938;BME280;70395;51.382;7.074;2023-05-27T16:26:06;100998.41;;;26.29;36.05
80938;BME280;70395;51.382;7.074;2023-05-27T16:28:32;100992.06;;;26.28;35.87
80938;BME280;70395;51.382;7.074;2023-05-27T16:30:58;100998.41;;;26.29;36.02
80938;BME280;70395;51.382;7.074;2023-05-27T16:33:25;100992.06;;;26.28;36.46
80938;BME280;70395;51.382;7.074;2023-05-27T16:35:51;100992.06;;;26.28;35.98
80938;BME280;70395;51.382;7.074;2023-05-27T16:38:19;100989.31;;;26.28;36.07
80938;BME280;70395;51.382;7.074;2023-05-27T16:40:45;100986.56;;;26.28;36.20
80938;BME280;70395;51.382;7.074;2023-05-27T16:43:11;100980.84;;;26.30;35.95
80938;BME280;70395;51.382;7.074;2023-05-27T16:45:38;100979.16;;;26.29;36.41
80938;BME280;70395;51.382;7.074;2023-05-27T16:48:04;100978.31;;;26.28;36.26
80938;BME280;70395;51.382;7.074;2023-05-27T16:50:33;100970.91;;;26.29;36.21
80938;BME280;70395;51.382;7.074;2023-05-27T16:52:59;100981.91;;;26.29;35.93
80938;BME280;70395;51.382;7.074;2023-05-27T16:55:25;100979.16;;;26.29;36.05
80938;BME280;70395;51.382;7.074;2023-05-27T16:57:50;100967.31;;;26.28;36.00
80938;BME280;70395;51.382;7.074;2023-05-27T17:00:16;100965.66;;;26.27;36.41
80938;BME280;70395;51.382;7.074;2023-05-27T17:02:42;100973.06;;;26.27;36.36
80938;BME280;70395;51.382;7.074;2023-05-27T17:05:09;100971.16;;;26.27;36.26
80938;BME280;70395;51.382;7.074;2023-05-27T17:07:34;100970.06;;;26.28;36.54
80938;BME280;70395;51.382;7.074;2023-05-27T17:10:00;100969.47;;;26.26;36.30
80938;BME280;70395;51.382;7.074;2023-05-27T17:12:26;100970.31;;;26.27;36.02
80938;BME280;70395;51.382;7.074;2023-05-27T17:14:52;100966.72;;;26.26;36.71
80938;BME280;70395;51.382;7.074;2023-05-27T17:17:17;100976.66;;;26.27;36.60
80938;BME280;70395;51.382;7.074;2023-05-27T17:19:44;100975.81;;;26.27;36.40
80938;BME280;70395;51.382;7.074;2023-05-27T17:22:12;100972.22;;;26.26;36.75
80938;BME280;70395;51.382;7.074;2023-05-27T17:24:38;100968.41;;;26.27;36.65
80938;BME280;70395;51.382;7.074;2023-05-27T17:27:09;100965.88;;;26.26;36.73
80938;BME280;70395;51.382;7.074;2023-05-27T17:29:38;100967.56;;;26.27;36.67
80938;BME280;70395;51.382;7.074;2023-05-27T17:32:06;100967.56;;;26.27;36.76
80938;BME280;70395;51.382;7.074;2023-05-27T17:34:32;100968.41;;;26.27;36.82
80938;BME280;70395;51.382;7.074;2023-05-27T17:36:58;100964.81;;;26.27;36.70
80938;BME280;70395;51.382;7.074;2023-05-27T17:39:25;100972.22;;;26.26;35.96
80938;BME280;70395;51.382;7.074;2023-05-27T17:41:50;100966.97;;;26.25;35.95
80938;BME280;70395;51.382;7.074;2023-05-27T17:44:16;100968.50;;;26.20;35.71
80938;BME280;70395;51.382;7.074;2023-05-27T17:46:42;100972.56;;;26.18;35.39
80938;BME280;70395;51.382;7.074;2023-05-27T17:49:09;100970.91;;;26.17;35.17
80938;BME280;70395;51.382;7.074;2023-05-27T17:51:35;100965.00;;;26.13;35.99
80938;BME280;70395;51.382;7.074;2023-05-27T17:54:01;100960.81;;;26.11;36.10
80938;BME280;70395;51.382;7.074;2023-05-27T17:56:27;100963.56;;;26.11;36.34
80938;BME280;70395;51.382;7.074;2023-05-27T17:58:52;100961.91;;;26.09;36.41
80938;BME280;70395;51.382;7.074;2023-05-27T18:01:18;100959.16;;;26.09;36.21
80938;BME280;70395;51.382;7.074;2023-05-27T18:03:44;100957.47;;;26.08;36.03
80938;BME280;70395;51.382;7.074;2023-05-27T18:06:10;100960.22;;;26.08;36.44
80938;BME280;70395;51.382;7.074;2023-05-27T18:08:37;100967.63;;;26.08;36.29
80938;BME280;70395;51.382;7.074;2023-05-27T18:11:05;100967.63;;;26.08;36.42
80938;BME280;70395;51.382;7.074;2023-05-27T18:13:31;100970.38;;;26.08;35.77
80938;BME280;70395;51.382;7.074;2023-05-27T18:15:57;100968.72;;;26.07;35.90
80938;BME280;70395;51.382;7.074;2023-05-27T18:18:23;100974.66;;;26.04;35.76
80938;BME280;70395;51.382;7.074;2023-05-27T18:20:49;100967.28;;;26.04;35.71
80938;BME280;70395;51.382;7.074;2023-05-27T18:23:15;100969.19;;;26.04;35.91
80938;BME280;70395;51.382;7.074;2023-05-27T18:25:41;100969.19;;;26.04;35.73
80938;BME280;70395;51.382;7.074;2023-05-27T18:28:07;100968.56;;;26.02;35.67
80938;BME280;70395;51.382;7.074;2023-05-27T18:30:32;100974.06;;;26.02;36.02
80938;BME280;70395;51.382;7.074;2023-05-27T18:32:59;100967.72;;;26.01;35.87
80938;BME280;70395;51.382;7.074;2023-05-27T18:35:26;100965.00;;;26.01;35.72
80938;BME280;70395;51.382;7.074;2023-05-27T18:37:53;100964.38;;;25.99;35.57
80938;BME280;70395;51.382;7.074;2023-05-27T18:40:19;100967.13;;;25.99;35.79
80938;BME280;70395;51.382;7.074;2023-05-27T18:42:48;100971.78;;;25.98;36.16
80938;BME280;70395;51.382;7.074;2023-05-27T18:45:14;100971.78;;;25.98;35.86
80938;BME280;70395;51.382;7.074;2023-05-27T18:47:40;100969.53;;;25.95;36.24
80938;BME280;70395;51.382;7.074;2023-05-27T18:50:06;100966.78;;;25.95;36.15
80938;BME280;70395;51.382;7.074;2023-05-27T18:52:32;100972.28;;;25.95;36.11
80938;BME280;70395;51.382;7.074;2023-05-27T18:54:57;100978.59;;;25.96;36.21
80938;BME280;70395;51.382;7.074;2023-05-27T18:57:23;100978.81;;;25.94;36.10
80938;BME280;70395;51.382;7.074;2023-05-27T18:59:53;100978.81;;;25.94;36.28
80938;BME280;70395;51.382;7.074;2023-05-27T19:02:23;100977.97;;;25.94;36.29
80938;BME280;70395;51.382;7.074;2023-05-27T19:04:49;100976.06;;;25.94;35.75
80938;BME280;70395;51.382;7.074;2023-05-27T19:07:16;100973.34;;;25.94;35.88
80938;BME280;70395;51.382;7.074;2023-05-27T19:09:42;100974.38;;;25.93;35.94
80938;BME280;70395;51.382;7.074;2023-05-27T19:12:09;100979.28;;;25.91;35.40
80938;BME280;70395;51.382;7.074;2023-05-27T19:14:36;100978.69;;;25.89;35.07
80938;BME280;70395;51.382;7.074;2023-05-27T19:17:02;100973.88;;;25.84;35.45
80938;BME280;70395;51.382;7.074;2023-05-27T19:19:29;100970.53;;;25.82;35.08
80938;BME280;70395;51.382;7.074;2023-05-27T19:21:55;100963.59;;;25.80;35.33
80938;BME280;70395;51.382;7.074;2023-05-27T19:24:21;100965.75;;;25.78;35.53
80938;BME280;70395;51.382;7.074;2023-05-27T19:26:47;100967.66;;;25.77;35.35
80938;BME280;70395;51.382;7.074;2023-05-27T19:29:12;100971.44;;;25.76;35.54
80938;BME280;70395;51.382;7.074;2023-05-27T19:31:38;100970.41;;;25.77;35.15
80938;BME280;70395;51.382;7.074;2023-05-27T19:34:04;100965.97;;;25.76;35.11
80938;BME280;70395;51.382;7.074;2023-05-27T19:36:31;100966.81;;;25.77;35.23
80938;BME280;70395;51.382;7.074;2023-05-27T19:38:57;100964.91;;;25.77;35.02
80938;BME280;70395;51.382;7.074;2023-05-27T19:41:23;100977.78;;;25.77;35.20
80938;BME280;70395;51.382;7.074;2023-05-27T19:43:49;100969.78;;;25.75;35.24
80938;BME280;70395;51.382;7.074;2023-05-27T19:46:14;100965.97;;;25.76;35.20
80938;BME280;70395;51.382;7.074;2023-05-27T19:48:40;100974.19;;;25.76;35.31
80938;BME280;70395;51.382;7.074;2023-05-27T19:51:06;100965.16;;;25.75;35.43
80938;BME280;70395;51.382;7.074;2023-05-27T19:53:32;100965.97;;;25.76;35.15
80938;BME280;70395;51.382;7.074;2023-05-27T19:55:58;100970.66;;;25.75;35.64
80938;BME280;70395;51.382;7.074;2023-05-27T19:58:26;100978.03;;;25.75;35.38
80938;BME280;70395;51.382;7.074;2023-05-27T20:00:53;100972.53;;;25.75;35.42
80938;BME280;70395;51.382;7.074;2023-05-27T20:03:19;100973.38;;;25.75;35.38
80938;BME280;70395;51.382;7.074;2023-05-27T20:05:45;100979.94;;;25.74;35.60
80938;BME280;70395;51.382;7.074;2023-05-27T20:08:18;100975.53;;;25.73;35.22
80938;BME280;70395;51.382;7.074;2023-05-27T20:10:44;100971.94;;;25.73;35.44
80938;BME280;70395;51.382;7.074;2023-05-27T20:13:10;100974.06;;;25.71;35.36
80938;BME280;70395;51.382;7.074;2023-05-27T20:15:37;100973.41;;;25.69;35.33
80938;BME280;70395;51.382;7.074;2023-05-27T20:18:03;100976.16;;;25.69;35.72
80938;BME280;70395;51.382;7.074;2023-05-27T20:20:31;100968.16;;;25.67;35.47
80938;BME280;70395;51.382;7.074;2023-05-27T20:23:04;100979.16;;;25.67;35.58
80938;BME280;70395;51.382;7.074;2023-05-27T20:25:30;100973.66;;;25.67;35.89
80938;BME280;70395;51.382;7.074;2023-05-27T20:27:56;100974.50;;;25.68;36.15
80938;BME280;70395;51.382;7.074;2023-05-27T20:30:22;100969.88;;;25.68;36.13
80938;BME280;70395;51.382;7.074;2023-05-27T20:32:49;100976.16;;;25.69;36.22
80938;BME280;70395;51.382;7.074;2023-05-27T20:35:15;100977.00;;;25.69;35.54
80938;BME280;70395;51.382;7.074;2023-05-27T20:37:41;100967.94;;;25.69;36.01
80938;BME280;70395;51.382;7.074;2023-05-27T20:40:08;100969.88;;;25.68;35.66
80938;BME280;70395;51.382;7.074;2023-05-27T20:42:35;100966.03;;;25.69;35.88
80938;BME280;70395;51.382;7.074;2023-05-27T20:45:02;100967.94;;;25.69;35.76
80938;BME280;70395;51.382;7.074;2023-05-27T20:47:28;100964.38;;;25.68;36.03
80938;BME280;70395;51.382;7.074;2023-05-27T20:49:56;100966.28;;;25.68;36.16
80938;BME280;70395;51.382;7.074;2023-05-27T20:52:22;100958.03;;;25.68;36.23
80938;BME280;70395;51.382;7.074;2023-05-27T20:54:49;100962.44;;;25.69;35.65
80938;BME280;70395;51.382;7.074;2023-05-27T20:57:15;100954.19;;;25.69;36.03
80938;BME280;70395;51.382;7.074;2023-05-27T20:59:41;100963.28;;;25.69;36.23
80938;BME280;70395;51.382;7.074;2023-05-27T21:02:13;100956.13;;;25.68;36.42
80938;BME280;70395;51.382;7.074;2023-05-27T21:04:42;100957.78;;;25.69;36.15
80938;BME280;70395;51.382;7.074;2023-05-27T21:07:09;100955.03;;;25.69;36.21
80938;BME280;70395;51.382;7.074;2023-05-27T21:09:39;100948.94;;;25.67;36.00
80938;BME280;70395;51.382;7.074;2023-05-27T21:12:06;100951.25;;;25.70;35.91
80938;BME280;70395;51.382;7.074;2023-05-27T21:14:33;100948.50;;;25.70;36.19
80938;BME280;70395;51.382;7.074;2023-05-27T21:16:58;100944.91;;;25.70;36.14
80938;BME280;70395;51.382;7.074;2023-05-27T21:19:24;100945.97;;;25.69;35.89
80938;BME280;70395;51.382;7.074;2023-05-27T21:21:50;100937.72;;;25.69;35.85
80938;BME280;70395;51.382;7.074;2023-05-27T21:24:16;100943.22;;;25.69;36.16
80938;BME280;70395;51.382;7.074;2023-05-27T21:26:42;100944.91;;;25.70;35.81
80938;BME280;70395;51.382;7.074;2023-05-27T21:29:08;100944.06;;;25.69;35.93
80938;BME280;70395;51.382;7.074;2023-05-27T21:31:34;100944.91;;;25.70;36.13
80938;BME280;70395;51.382;7.074;2023-05-27T21:34:00;100945.16;;;25.68;35.60
80938;BME280;70395;51.382;7.074;2023-05-27T21:36:26;100936.91;;;25.68;35.67
80938;BME280;70395;51.382;7.074;2023-05-27T21:38:52;100936.06;;;25.68;36.20
80938;BME280;70395;51.382;7.074;2023-05-27T21:41:18;100937.13;;;25.67;36.02
80938;BME280;70395;51.382;7.074;2023-05-27T21:43:45;100950.84;;;25.67;35.77
80938;BME280;70395;51.382;7.074;2023-05-27T21:46:11;100939.88;;;25.67;36.03
80938;BME280;70395;51.382;7.074;2023-05-27T21:48:37;100941.78;;;25.66;35.69
80938;BME280;70395;51.382;7.074;2023-05-27T21:51:04;100940.97;;;25.66;35.91
80938;BME280;70395;51.382;7.074;2023-05-27T21:53:30;100933.53;;;25.66;35.90
80938;BME280;70395;51.382;7.074;2023-05-27T21:55:55;100940.13;;;25.65;36.14
80938;BME280;70395;51.382;7.074;2023-05-27T21:58:21;100942.88;;;25.65;35.91
80938;BME280;70395;51.382;7.074;2023-05-27T22:00:47;100935.69;;;25.64;36.22
80938;BME280;70395;51.382;7.074;2023-05-27T22:03:13;100935.69;;;25.64;35.67
80938;BME280;70395;51.382;7.074;2023-05-27T22:05:39;100940.34;;;25.63;35.81
80938;BME280;70395;51.382;7.074;2023-05-27T22:08:06;100930.44;;;25.62;35.77
80938;BME280;70395;51.382;7.074;2023-05-27T22:10:33;100929.59;;;25.62;35.93
80938;BME280;70395;51.382;7.074;2023-05-27T22:13:00;100934.47;;;25.60;35.42
80938;BME280;70395;51.382;7.074;2023-05-27T22:15:26;100928.16;;;25.59;35.86
80938;BME280;70395;51.382;7.074;2023-05-27T22:17:52;100929.84;;;25.60;35.63
80938;BME280;70395;51.382;7.074;2023-05-27T22:20:18;100918.25;;;25.58;36.22
80938;BME280;70395;51.382;7.074;2023-05-27T22:22:44;100921.81;;;25.59;36.13
80938;BME280;70395;51.382;7.074;2023-05-27T22:25:12;100921.00;;;25.58;35.62
80938;BME280;70395;51.382;7.074;2023-05-27T22:27:38;100920.16;;;25.58;35.85
80938;BME280;70395;51.382;7.074;2023-05-27T22:30:05;100914.66;;;25.58;36.04
80938;BME280;70395;51.382;7.074;2023-05-27T22:32:36;100915.13;;;25.55;35.64
80938;BME280;70395;51.382;7.074;2023-05-27T22:35:06;100912.38;;;25.55;35.68
80938;BME280;70395;51.382;7.074;2023-05-27T22:37:32;100912.38;;;25.55;36.06
80938;BME280;70395;51.382;7.074;2023-05-27T22:39:58;100912.63;;;25.53;35.61
80938;BME280;70395;51.382;7.074;2023-05-27T22:42:24;100913.47;;;25.53;36.07
80938;BME280;70395;51.382;7.074;2023-05-27T22:44:50;100909.03;;;25.52;35.62
80938;BME280;70395;51.382;7.074;2023-05-27T22:47:15;100905.44;;;25.52;36.00
80938;BME280;70395;51.382;7.074;2023-05-27T22:49:41;100906.53;;;25.51;35.93
80938;BME280;70395;51.382;7.074;2023-05-27T22:52:07;100907.56;;;25.50;36.05
80938;BME280;70395;51.382;7.074;2023-05-27T22:54:33;100904.84;;;25.50;36.04
80938;BME280;70395;51.382;7.074;2023-05-27T22:56:59;100910.31;;;25.50;35.89
80938;BME280;70395;51.382;7.074;2023-05-27T22:59:24;100911.41;;;25.49;36.03
80938;BME280;70395;51.382;7.074;2023-05-27T23:01:51;100905.06;;;25.48;35.97
80938;BME280;70395;51.382;7.074;2023-05-27T23:04:17;100904.22;;;25.48;35.78
80938;BME280;70395;51.382;7.074;2023-05-27T23:06:43;100901.72;;;25.46;35.64
80938;BME280;70395;51.382;7.074;2023-05-27T23:09:08;100903.63;;;25.46;35.72
80938;BME280;70395;51.382;7.074;2023-05-27T23:11:34;100903.84;;;25.44;35.59
80938;BME280;70395;51.382;7.074;2023-05-27T23:14:00;100907.44;;;25.45;35.63
80938;BME280;70395;51.382;7.074;2023-05-27T23:16:26;100901.94;;;25.45;35.88
80938;BME280;70395;51.382;7.074;2023-05-27T23:18:52;100893.72;;;25.45;35.63
80938;BME280;70395;51.382;7.074;2023-05-27T23:21:17;100899.19;;;25.45;35.83
80938;BME280;70395;51.382;7.074;2023-05-27T23:23:43;100899.44;;;25.43;35.59
80938;BME280;70395;51.382;7.074;2023-05-27T23:26:10;100895.00;;;25.42;35.66
80938;BME280;70395;51.382;7.074;2023-05-27T23:28:35;100893.09;;;25.42;35.65
80938;BME280;70395;51.382;7.074;2023-05-27T23:31:01;100886.78;;;25.42;35.95
80938;BME280;70395;51.382;7.074;2023-05-27T23:33:27;100885.13;;;25.41;36.16
80938;BME280;70395;51.382;7.074;2023-05-27T23:35:53;100897.75;;;25.42;36.05
80938;BME280;70395;51.382;7.074;2023-05-27T23:38:19;100889.75;;;25.40;35.98
80938;BME280;70395;51.382;7.074;2023-05-27T23:40:45;100894.16;;;25.41;35.72
80938;BME280;70395;51.382;7.074;2023-05-27T23:43:11;100887.03;;;25.40;36.10
80938;BME280;70395;51.382;7.074;2023-05-27T23:45:36;100893.09;;;25.42;35.31
80938;BME280;70395;51.382;7.074;2023-05-27T23:48:02;100885.94;;;25.41;35.88
80938;BME280;70395;51.382;7.074;2023-05-27T23:50:28;100885.13;;;25.41;35.99
80938;BME280;70395;51.382;7.074;2023-05-27T23:52:54;100888.69;;;25.41;35.92
80938;BME280;70395;51.382;7.074;2023-05-27T23:55:20;100885.13;;;25.41;35.86
80938;BME280;70395;51.382;7.074;2023-05-27T23:57:46;100883.19;;;25.41;35.59
